Time;durP1;ratioP1;P1;durP2;ratioP2;P2;SDS_P1;SDS_P2;PMS_P1;PMS_P2;Temp;Humidity;BMP_temperature;BMP_pressure;BME280_temperature;BME280_humidity;BME280_pressure;Samples;Min_cycle;Max_cycle;Signal;HPM_P1;HPM_P2
2023/04/10 00:02:19;;;;;;;11.30;8.33;;;;;9.60;101476.00;;;;9825208;30;20247;-83
2023/04/10 00:07:21;;;;;;;11.90;8.23;;;;;9.60;101474.00;;;;9843604;29;20211;-84
2023/04/10 00:12:24;;;;;;;10.60;7.57;;;;;9.50;101491.00;;;;9889703;29;20268;-83
2023/04/10 00:17:26;;;;;;;13.17;7.67;;;;;9.50;101489.00;;;;9874475;29;20668;-84
2023/04/10 00:22:28;;;;;;;10.50;8.17;;;;;9.50;101482.00;;;;9871689;29;20224;-83
2023/04/10 00:27:30;;;;;;;10.40;7.47;;;;;9.50;101472.00;;;;9854862;30;20430;-83
2023/04/10 00:32:32;;;;;;;8.27;6.43;;;;;9.40;101468.00;;;;9874335;29;20848;-84
2023/04/10 00:37:34;;;;;;;10.47;7.40;;;;;9.40;101462.00;;;;9847966;29;20887;-83
2023/04/10 00:42:36;;;;;;;11.73;7.43;;;;;9.40;101463.00;;;;9875142;29;20227;-84
2023/04/10 00:47:39;;;;;;;10.10;6.97;;;;;9.50;101465.00;;;;9874875;29;20207;-84
2023/04/10 00:52:42;;;;;;;9.07;6.67;;;;;9.50;101455.00;;;;9837086;30;20246;-83
2023/04/10 00:57:46;;;;;;;7.60;6.23;;;;;9.50;101452.00;;;;9868111;29;20254;-84
2023/04/10 01:02:48;;;;;;;10.63;6.20;;;;;9.50;101440.00;;;;9853366;29;20281;-83
2023/04/10 01:08:01;;;;;;;10.30;6.70;;;;;9.50;101437.00;;;;9843730;29;20687;-84
2023/04/10 01:13:32;;;;;;;7.70;5.97;;;;;9.50;101429.00;;;;9859014;29;20211;-83
2023/04/10 01:18:56;;;;;;;7.00;5.70;;;;;9.50;101426.00;;;;9838729;29;20231;-83
2023/04/10 01:24:21;;;;;;;9.40;6.17;;;;;9.50;101416.00;;;;9846750;30;20220;-84
2023/04/10 01:29:28;;;;;;;8.30;5.73;;;;;9.50;101411.00;;;;9834317;30;20219;-83
2023/04/10 01:34:45;;;;;;;6.37;5.27;;;;;9.50;101409.00;;;;9878751;29;20203;-83
2023/04/10 01:39:53;;;;;;;7.27;5.37;;;;;9.50;101412.00;;;;9909544;29;20307;-83
2023/04/10 01:44:57;;;;;;;7.10;5.83;;;;;9.50;101396.00;;;;9899097;29;20205;-84
2023/04/10 01:50:00;;;;;;;8.93;6.00;;;;;9.50;101390.00;;;;9848857;29;20254;-83
2023/04/10 01:55:05;;;;;;;6.63;5.17;;;;;9.50;101380.00;;;;9834593;30;20292;-83
2023/04/10 02:00:18;;;;;;;5.37;4.83;;;;;9.40;101363.00;;;;9881356;29;20230;-83
2023/04/10 02:05:26;;;;;;;6.53;5.00;;;;;9.40;101359.00;;;;9879215;29;20576;-83
2023/04/10 02:10:36;;;;;;;6.50;5.13;;;;;9.40;101343.00;;;;9864956;29;20461;-84
2023/04/10 02:15:42;;;;;;;6.33;5.30;;;;;9.40;101361.00;;;;9889514;29;20574;-84
2023/04/10 02:20:45;;;;;;;6.33;5.17;;;;;9.40;101346.00;;;;9889529;29;20326;-84
2023/04/10 02:25:47;;;;;;;5.57;4.73;;;;;9.40;101357.00;;;;9889499;29;20205;-84
2023/04/10 02:30:50;;;;;;;6.47;4.93;;;;;9.40;101357.00;;;;9878016;29;20274;-84
2023/04/10 02:35:52;;;;;;;6.07;4.97;;;;;9.40;101346.00;;;;9834048;29;20235;-84
2023/04/10 02:40:56;;;;;;;6.07;4.77;;;;;9.30;101361.00;;;;9851595;29;20224;-84
2023/04/10 02:45:58;;;;;;;8.00;5.20;;;;;9.20;101352.00;;;;9888935;29;20759;-84
2023/04/10 02:51:05;;;;;;;6.07;5.10;;;;;9.20;101351.00;;;;9883182;29;20200;-84
2023/04/10 02:56:08;;;;;;;6.10;4.57;;;;;9.10;101346.00;;;;9882878;29;20220;-84
2023/04/10 03:01:10;;;;;;;6.73;5.63;;;;;9.00;101352.00;;;;9883669;29;20231;-84
2023/04/10 03:06:14;;;;;;;7.17;5.40;;;;;8.90;101341.00;;;;9898598;29;20260;-84
2023/04/10 03:11:19;;;;;;;6.33;5.30;;;;;8.80;101338.00;;;;9852161;29;20291;-83
2023/04/10 03:16:21;;;;;;;7.50;5.70;;;;;8.80;101335.00;;;;9815909;30;20210;-83
2023/04/10 03:21:23;;;;;;;6.50;5.10;;;;;8.80;101333.00;;;;9845503;30;20232;-84
2023/04/10 03:26:26;;;;;;;9.13;5.67;;;;;8.80;101331.00;;;;9881620;29;20612;-84
2023/04/10 03:31:29;;;;;;;7.37;5.90;;;;;8.80;101330.00;;;;9843954;29;20223;-85
2023/04/10 03:36:34;;;;;;;8.20;5.40;;;;;8.80;101326.00;;;;9817692;29;20444;-84
2023/04/10 03:41:36;;;;;;;6.50;5.00;;;;;8.80;101307.00;;;;9834142;30;20235;-85
2023/04/10 03:46:39;;;;;;;6.77;5.10;;;;;8.70;101302.00;;;;9847735;30;20820;-83
2023/04/10 03:51:42;;;;;;;6.00;5.13;;;;;8.70;101299.00;;;;9830004;29;20208;-83
2023/04/10 03:56:44;;;;;;;7.83;5.47;;;;;8.60;101289.00;;;;9870206;29;20231;-84
2023/04/10 04:01:46;;;;;;;5.97;5.20;;;;;8.60;101285.00;;;;9837341;30;20239;-83
2023/04/10 04:06:49;;;;;;;6.80;5.40;;;;;8.60;101281.00;;;;9865368;29;20272;-83
2023/04/10 04:11:57;;;;;;;7.17;5.27;;;;;8.60;101281.00;;;;9847730;30;20208;-83
2023/04/10 04:17:22;;;;;;;6.70;5.20;;;;;8.60;101265.00;;;;9830522;30;20212;-83
2023/04/10 04:22:42;;;;;;;7.07;5.63;;;;;8.70;101256.00;;;;9866660;29;20744;-84
2023/04/10 04:28:03;;;;;;;7.00;5.67;;;;;8.70;101262.00;;;;9883858;29;20215;-84
2023/04/10 04:33:31;;;;;;;6.80;4.97;;;;;8.70;101269.00;;;;9881646;29;20886;-84
2023/04/10 04:38:37;;;;;;;7.00;5.50;;;;;8.80;101265.00;;;;9840655;30;20227;-84
2023/04/10 04:43:52;;;;;;;5.97;4.87;;;;;8.80;101262.00;;;;9850579;29;20307;-84
2023/04/10 04:49:00;;;;;;;6.50;5.10;;;;;8.80;101253.00;;;;9863653;29;20227;-84
2023/04/10 04:54:19;;;;;;;7.60;4.97;;;;;8.80;101256.00;;;;9854919;29;20228;-84
2023/04/10 04:59:34;;;;;;;6.10;5.33;;;;;8.80;101249.00;;;;9870574;29;20691;-84
2023/04/10 05:04:41;;;;;;;5.47;4.40;;;;;8.80;101244.00;;;;9854504;30;20767;-84
2023/04/10 05:10:00;;;;;;;5.97;5.23;;;;;8.90;101242.00;;;;9868864;29;20196;-84
2023/04/10 05:15:17;;;;;;;5.73;5.13;;;;;8.90;101227.00;;;;9890632;29;20208;-84
2023/04/10 05:20:38;;;;;;;6.07;4.97;;;;;9.00;101230.00;;;;9861648;29;20296;-84
2023/04/10 05:25:59;;;;;;;6.00;5.37;;;;;9.00;101241.00;;;;9860586;29;20207;-84
2023/04/10 05:31:19;;;;;;;8.80;5.23;;;;;9.10;101251.00;;;;9909835;29;20238;-85
2023/04/10 05:36:31;;;;;;;6.97;5.90;;;;;9.20;101257.00;;;;9916905;29;20300;-83
2023/04/10 05:42:00;;;;;;;7.23;4.87;;;;;9.40;101259.00;;;;9921126;29;20222;-83
2023/04/10 05:47:25;;;;;;;5.97;5.37;;;;;9.50;101257.00;;;;9841910;30;20959;-84
2023/04/10 05:52:46;;;;;;;6.17;5.13;;;;;9.60;101249.00;;;;9872883;29;20721;-84
2023/04/10 05:58:10;;;;;;;6.53;5.50;;;;;9.70;101255.00;;;;9876374;29;20228;-85
2023/04/10 06:03:29;;;;;;;6.70;5.30;;;;;9.80;101255.00;;;;9882891;29;20826;-84
2023/04/10 06:08:35;;;;;;;6.13;5.23;;;;;9.90;101254.00;;;;9873445;29;20231;-83
2023/04/10 06:13:37;;;;;;;5.83;4.80;;;;;10.00;101248.00;;;;9876457;29;20300;-84
2023/04/10 06:18:40;;;;;;;5.73;5.17;;;;;10.10;101235.00;;;;9857721;29;20208;-83
2023/04/10 06:23:44;;;;;;;5.90;4.90;;;;;10.20;101226.00;;;;9873455;29;20203;-83
2023/04/10 06:28:46;;;;;;;6.50;5.13;;;;;10.30;101221.00;;;;9855709;29;20292;-84
2023/04/10 06:33:49;;;;;;;6.27;5.20;;;;;10.30;101218.00;;;;9846949;29;20847;-83
2023/04/10 06:38:52;;;;;;;7.70;4.60;;;;;10.40;101205.00;;;;9876254;29;20261;-83
2023/04/10 06:43:54;;;;;;;6.47;5.30;;;;;10.50;101200.00;;;;9875127;29;20204;-83
2023/04/10 06:48:56;;;;;;;5.93;5.10;;;;;10.70;101200.00;;;;9857152;29;20207;-83
2023/04/10 06:53:58;;;;;;;5.73;5.17;;;;;10.80;101196.00;;;;9853510;29;20412;-84
2023/04/10 06:59:00;;;;;;;6.23;4.67;;;;;10.90;101190.00;;;;9847572;29;20632;-84
2023/04/10 07:04:02;;;;;;;8.47;5.10;;;;;11.00;101188.00;;;;9794472;29;20215;-84
2023/04/10 07:09:04;;;;;;;6.87;5.43;;;;;11.20;101178.00;;;;9838415;29;20247;-84
2023/04/10 07:14:06;;;;;;;5.90;4.90;;;;;11.60;101158.00;;;;9869703;29;20799;-83
2023/04/10 07:19:08;;;;;;;6.27;5.07;;;;;11.90;101151.00;;;;9837022;29;20232;-84
2023/04/10 07:24:10;;;;;;;5.50;4.97;;;;;12.10;101141.00;;;;9851502;29;20217;-84
2023/04/10 07:29:13;;;;;;;8.00;5.00;;;;;12.40;101143.00;;;;9831276;29;20857;-83
2023/04/10 07:34:15;;;;;;;6.00;4.97;;;;;12.60;101136.00;;;;9814478;29;20304;-84
2023/04/10 07:39:17;;;;;;;6.53;4.77;;;;;12.90;101128.00;;;;9861071;29;20610;-83
2023/04/10 07:44:19;;;;;;;6.83;5.73;;;;;12.90;101121.00;;;;9827926;29;20819;-83
2023/04/10 07:49:21;;;;;;;7.27;5.23;;;;;12.90;101111.00;;;;9873096;29;20204;-84
2023/04/10 07:54:23;;;;;;;5.70;4.83;;;;;13.00;101110.00;;;;9867373;29;20215;-85
2023/04/10 07:59:27;;;;;;;9.70;5.80;;;;;13.00;101111.00;;;;9882375;29;20274;-83
2023/04/10 08:04:29;;;;;;;6.83;4.87;;;;;13.30;101108.00;;;;9877990;29;20204;-85
2023/04/10 08:09:32;;;;;;;6.00;5.40;;;;;13.50;101115.00;;;;9887456;29;20272;-84
2023/04/10 08:14:34;;;;;;;6.40;5.67;;;;;13.80;101111.00;;;;9878198;29;20226;-85
2023/04/10 08:19:37;;;;;;;6.80;4.97;;;;;14.20;101101.00;;;;9851815;29;20226;-82
2023/04/10 08:24:39;;;;;;;5.70;5.17;;;;;14.50;101100.00;;;;9887818;29;20296;-82
2023/04/10 08:29:42;;;;;;;6.40;5.07;;;;;14.90;101101.00;;;;9888701;29;20570;-82
2023/04/10 08:34:44;;;;;;;5.07;4.57;;;;;15.10;101099.00;;;;9858005;29;20215;-81
2023/04/10 08:39:46;;;;;;;6.63;4.20;;;;;15.00;101090.00;;;;9833133;30;20259;-83
2023/04/10 08:44:49;;;;;;;6.20;4.77;;;;;15.10;101082.00;;;;9890531;29;20278;-84
2023/04/10 08:49:56;;;;;;;6.00;4.70;;;;;15.30;101083.00;;;;9876397;29;20219;-81
2023/04/10 08:55:01;;;;;;;5.07;4.57;;;;;15.30;101082.00;;;;9875823;29;20222;-83
2023/04/10 09:00:03;;;;;;;6.43;4.77;;;;;15.30;101069.00;;;;9875700;29;20606;-84
2023/04/10 09:05:26;;;;;;;5.93;5.00;;;;;15.10;101066.00;;;;9870708;29;20212;-82
2023/04/10 09:10:28;;;;;;;6.07;5.00;;;;;15.20;101052.00;;;;9880930;29;20222;-82
2023/04/10 09:15:50;;;;;;;4.95;4.45;;;;;15.80;101053.00;;;;9877098;29;20200;-82
2023/04/10 09:20:52;;;;;;;8.90;4.80;;;;;16.20;101040.00;;;;9876771;29;20219;-83
2023/04/10 09:25:54;;;;;;;7.28;4.50;;;;;16.30;101048.00;;;;9891887;29;20271;-82
2023/04/10 09:30:57;;;;;;;4.75;4.32;;;;;16.30;101031.00;;;;9877250;29;20212;-82
2023/04/10 09:35:59;;;;;;;5.30;4.75;;;;;16.50;101044.00;;;;9839238;30;20205;-81
2023/04/10 09:41:07;;;;;;;6.13;4.47;;;;;16.30;101038.00;;;;9853786;29;20216;-82
2023/04/10 09:46:09;;;;;;;6.43;4.63;;;;;16.40;101032.00;;;;9852177;30;20269;-83
2023/04/10 09:51:30;;;;;;;7.10;5.30;;;;;16.80;101023.00;;;;9852447;30;20201;-83
2023/04/10 09:56:37;;;;;;;5.68;4.43;;;;;17.40;101011.00;;;;9824943;29;20778;-82
2023/04/10 10:01:39;;;;;;;4.63;3.45;;;;;17.90;101005.00;;;;9847601;29;20276;-82
2023/04/10 10:06:43;;;;;;;4.78;3.85;;;;;18.40;100994.00;;;;9869204;29;20866;-83
2023/04/10 10:11:48;;;;;;;4.28;3.88;;;;;18.80;100978.00;;;;9847790;29;20266;-83
2023/04/10 10:16:55;;;;;;;5.00;3.70;;;;;19.40;100971.00;;;;9833811;30;20209;-83
2023/04/10 10:21:59;;;;;;;4.03;3.65;;;;;20.10;100974.00;;;;9849465;30;20273;-82
2023/04/10 10:27:08;;;;;;;4.63;3.75;;;;;20.40;100955.00;;;;9840876;29;20225;-82
2023/04/10 10:32:12;;;;;;;5.00;3.33;;;;;20.60;100956.00;;;;9871643;29;20215;-82
2023/04/10 10:37:14;;;;;;;4.10;3.53;;;;;21.00;100945.00;;;;9885738;29;20214;-82
2023/04/10 10:42:29;;;;;;;3.55;3.22;;;;;21.00;100938.00;;;;9847395;30;20922;-82
2023/04/10 10:47:33;;;;;;;3.15;2.85;;;;;21.00;100928.00;;;;9837379;30;20278;-83
2023/04/10 10:52:39;;;;;;;3.90;3.28;;;;;21.10;100921.00;;;;9884197;29;20204;-82
2023/04/10 10:57:45;;;;;;;4.05;3.00;;;;;21.00;100913.00;;;;9821462;30;20276;-82
2023/04/10 11:03:07;;;;;;;5.85;3.50;;;;;21.20;100906.00;;;;9853785;29;20315;-83
2023/04/10 11:08:10;;;;;;;3.05;2.58;;;;;21.10;100891.00;;;;9868580;29;20215;-82
2023/04/10 11:13:17;;;;;;;3.78;2.97;;;;;21.10;100891.00;;;;9857057;29;20195;-83
2023/04/10 11:18:19;;;;;;;7.90;3.30;;;;;21.00;100878.00;;;;9855831;29;20196;-82
2023/04/10 11:23:22;;;;;;;2.90;2.60;;;;;20.80;100870.00;;;;9837228;30;20227;-83
2023/04/10 11:28:30;;;;;;;3.90;2.53;;;;;20.60;100866.00;;;;9840976;30;20245;-83
2023/04/10 11:33:33;;;;;;;3.95;2.90;;;;;20.40;100863.00;;;;9867890;29;20223;-83
2023/04/10 11:38:36;;;;;;;4.07;2.97;;;;;20.20;100859.00;;;;9869784;29;20295;-84
2023/04/10 11:43:38;;;;;;;2.63;2.42;;;;;20.50;100852.00;;;;9859540;29;20286;-84
2023/04/10 11:48:40;;;;;;;3.20;2.65;;;;;20.70;100844.00;;;;9859674;29;20207;-83
2023/04/10 11:53:42;;;;;;;2.55;2.35;;;;;20.40;100828.00;;;;9819495;30;20208;-84
2023/04/10 11:58:44;;;;;;;2.78;2.42;;;;;19.80;100822.00;;;;9851722;29;20228;-82
2023/04/10 12:03:46;;;;;;;2.50;2.30;;;;;19.40;100799.00;;;;9879989;29;20496;-83
2023/04/10 12:08:49;;;;;;;2.47;2.25;;;;;19.40;100792.00;;;;9897824;29;20202;-83
2023/04/10 12:13:53;;;;;;;2.78;2.58;;;;;19.10;100786.00;;;;9928454;29;20458;-83
2023/04/10 12:18:56;;;;;;;2.75;2.50;;;;;18.70;100789.00;;;;9853406;29;20226;-83
2023/04/10 12:23:59;;;;;;;3.40;2.47;;;;;18.50;100798.00;;;;9837693;30;20436;-83
2023/04/10 12:29:01;;;;;;;4.00;2.25;;;;;18.20;100781.00;;;;9868357;29;20232;-84
2023/04/10 12:34:04;;;;;;;2.95;2.40;;;;;18.30;100779.00;;;;9869268;29;20216;-83
2023/04/10 12:39:21;;;;;;;2.08;1.90;;;;;18.70;100758.00;;;;9854721;30;20204;-83
2023/04/10 12:44:23;;;;;;;2.72;2.40;;;;;18.70;100765.00;;;;9874406;29;20243;-83
2023/04/10 12:49:25;;;;;;;2.58;2.15;;;;;18.90;100757.00;;;;9870852;29;20214;-83
2023/04/10 12:54:32;;;;;;;3.33;2.10;;;;;19.40;100747.00;;;;9859698;29;20298;-82
2023/04/10 12:59:34;;;;;;;2.15;1.92;;;;;19.50;100735.00;;;;9882624;29;20200;-83
2023/04/10 13:04:36;;;;;;;2.20;2.00;;;;;19.10;100730.00;;;;9872870;29;20227;-83
2023/04/10 13:09:39;;;;;;;3.22;2.58;;;;;18.40;100725.00;;;;9851878;30;20254;-83
2023/04/10 13:14:41;;;;;;;4.57;2.88;;;;;17.70;100706.00;;;;9854647;29;20240;-83
2023/04/10 13:19:43;;;;;;;4.60;2.15;;;;;17.50;100684.00;;;;9822714;30;20208;-83
2023/04/10 13:24:45;;;;;;;3.47;2.08;;;;;17.90;100677.00;;;;9851327;30;20230;-82
2023/04/10 13:29:48;;;;;;;2.28;2.05;;;;;17.70;100687.00;;;;9839717;29;20216;-82
2023/04/10 13:34:51;;;;;;;3.58;2.55;;;;;17.70;100677.00;;;;9848625;30;20207;-82
2023/04/10 13:39:53;;;;;;;2.50;2.30;;;;;17.70;100660.00;;;;9855247;29;20226;-83
2023/04/10 13:44:55;;;;;;;5.82;2.47;;;;;17.90;100648.00;;;;9862804;29;20200;-82
2023/04/10 13:49:57;;;;;;;2.63;2.42;;;;;18.20;100634.00;;;;9885237;29;20691;-83
2023/04/10 13:54:59;;;;;;;3.92;2.25;;;;;18.60;100646.00;;;;9856477;29;20296;-82
2023/04/10 14:00:03;;;;;;;5.28;2.53;;;;;18.40;100639.00;;;;9867351;29;20705;-83
2023/04/10 14:05:13;;;;;;;2.17;1.90;;;;;18.70;100613.00;;;;9883325;29;20306;-81
2023/04/10 14:10:15;;;;;;;2.38;2.17;;;;;19.50;100600.00;;;;9899522;29;20263;-82
2023/04/10 14:15:17;;;;;;;2.60;2.40;;;;;20.00;100611.00;;;;9881661;29;20203;-82
2023/04/10 14:20:19;;;;;;;4.47;2.25;;;;;19.70;100601.00;;;;9831082;30;20232;-83
2023/04/10 14:25:21;;;;;;;4.22;1.98;;;;;19.90;100601.00;;;;9832924;29;20216;-82
2023/04/10 14:30:27;;;;;;;3.25;2.00;;;;;19.50;100588.00;;;;9846023;30;20236;-83
2023/04/10 14:35:30;;;;;;;2.47;2.20;;;;;19.20;100588.00;;;;9834407;30;20211;-82
2023/04/10 14:40:32;;;;;;;2.35;2.15;;;;;18.80;100608.00;;;;9871743;29;20243;-82
2023/04/10 14:45:34;;;;;;;2.85;2.00;;;;;18.30;100601.00;;;;9860186;29;20762;-82
2023/04/10 14:50:36;;;;;;;2.80;2.50;;;;;17.10;100600.00;;;;9867710;29;20207;-83
2023/04/10 14:55:38;;;;;;;2.58;2.38;;;;;15.50;100614.00;;;;9867347;29;20404;-81
2023/04/10 15:00:41;;;;;;;2.45;2.15;;;;;14.90;100626.00;;;;9884349;29;20865;-82
2023/04/10 15:05:43;;;;;;;3.83;2.30;;;;;15.20;100633.00;;;;9854962;29;20216;-82
2023/04/10 15:10:48;;;;;;;6.40;2.80;;;;;15.50;100626.00;;;;9817980;30;20262;-82
2023/04/10 15:15:51;;;;;;;5.75;3.55;;;;;15.30;100628.00;;;;9830334;30;20261;-81
2023/04/10 15:20:54;;;;;;;4.53;2.60;;;;;14.70;100639.00;;;;9840555;29;20696;-82
2023/04/10 15:25:57;;;;;;;5.13;3.00;;;;;14.50;100627.00;;;;9869049;29;20887;-82
2023/04/10 15:30:58;;;;;;;5.17;3.03;;;;;14.30;100632.00;;;;9883379;29;20214;-82
2023/04/10 15:36:01;;;;;;;3.73;2.93;;;;;14.10;100614.00;;;;9874770;29;20205;-81
2023/04/10 15:41:10;;;;;;;4.57;2.77;;;;;14.10;100610.00;;;;9867564;29;20223;-82
2023/04/10 15:46:13;;;;;;;4.93;3.20;;;;;14.10;100610.00;;;;9884624;29;20298;-82
2023/04/10 15:51:16;;;;;;;3.87;3.30;;;;;13.80;100607.00;;;;9837161;30;20220;-82
2023/04/10 15:56:18;;;;;;;6.33;4.13;;;;;13.40;100605.00;;;;9845815;30;20216;-81
2023/04/10 16:01:19;;;;;;;4.43;3.77;;;;;12.90;100609.00;;;;9861871;29;20254;-81
2023/04/10 16:06:26;;;;;;;7.07;4.73;;;;;12.70;100616.00;;;;9882587;29;20203;-81
2023/04/10 16:11:28;;;;;;;7.70;4.93;;;;;12.60;100617.00;;;;9882926;29;20199;-81
2023/04/10 16:16:30;;;;;;;6.87;4.70;;;;;12.20;100621.00;;;;9883268;29;20750;-82
2023/04/10 16:21:32;;;;;;;7.50;5.37;;;;;12.00;100626.00;;;;9867383;29;20942;-81
2023/04/10 16:26:34;;;;;;;7.53;5.57;;;;;11.90;100648.00;;;;9865184;29;20219;-82
2023/04/10 16:31:36;;;;;;;6.07;5.37;;;;;11.80;100655.00;;;;9869281;29;20220;-82
2023/04/10 16:36:38;;;;;;;7.90;5.40;;;;;12.00;100645.00;;;;9847344;30;20285;-81
2023/04/10 16:41:40;;;;;;;5.80;4.20;;;;;12.00;100652.00;;;;9886986;29;20568;-81
2023/04/10 16:46:42;;;;;;;3.33;2.93;;;;;11.80;100653.00;;;;9867801;29;20207;-81
2023/04/10 16:51:44;;;;;;;3.60;2.20;;;;;11.80;100660.00;;;;9869541;29;20208;-81
2023/04/10 16:56:46;;;;;;;5.93;2.37;;;;;11.70;100665.00;;;;9883661;29;20259;-81
2023/04/10 17:01:50;;;;;;;2.67;2.47;;;;;11.60;100660.00;;;;9868475;29;20227;-81
2023/04/10 17:06:52;;;;;;;6.03;4.20;;;;;11.60;100641.00;;;;9881880;29;20200;-80
2023/04/10 17:11:54;;;;;;;4.43;2.00;;;;;11.50;100640.00;;;;9838277;29;20294;-80
2023/04/10 17:16:56;;;;;;;2.93;1.83;;;;;11.40;100634.00;;;;9845314;29;20433;-80
2023/04/10 17:21:58;;;;;;;2.60;1.93;;;;;11.30;100632.00;;;;9844938;30;20270;-80
2023/04/10 17:27:01;;;;;;;3.20;1.80;;;;;11.30;100613.00;;;;9840303;29;20207;-80
2023/04/10 17:32:02;;;;;;;2.43;1.87;;;;;11.20;100603.00;;;;9869318;29;20223;-80
2023/04/10 17:37:05;;;;;;;2.90;1.70;;;;;11.30;100583.00;;;;9888804;29;20206;-81
2023/04/10 17:42:07;;;;;;;2.17;1.67;;;;;11.10;100593.00;;;;9877630;29;20437;-81
2023/04/10 17:47:09;;;;;;;2.33;1.77;;;;;11.00;100565.00;;;;9870420;29;20213;-80
2023/04/10 17:52:11;;;;;;;3.57;1.50;;;;;10.90;100534.00;;;;9867057;29;20208;-82
2023/04/10 17:57:13;;;;;;;3.23;1.43;;;;;10.80;100533.00;;;;9835135;29;20291;-81
2023/04/10 18:02:15;;;;;;;1.33;1.20;;;;;10.80;100515.00;;;;9897920;29;20223;-82
2023/04/10 18:07:17;;;;;;;3.10;1.53;;;;;10.70;100491.00;;;;9882890;29;20954;-82
2023/04/10 18:12:19;;;;;;;3.13;1.50;;;;;10.60;100497.00;;;;9874593;29;20247;-82
2023/04/10 18:17:22;;;;;;;5.23;2.20;;;;;10.60;100531.00;;;;9848313;30;20357;-81
2023/04/10 18:22:24;;;;;;;5.33;1.87;;;;;10.60;100518.00;;;;9845851;30;20564;-82
2023/04/10 18:27:33;;;;;;;3.80;2.40;;;;;10.60;100473.00;;;;9848975;29;20204;-81
2023/04/10 18:32:36;;;;;;;4.97;2.23;;;;;10.50;100533.00;;;;9855537;29;20287;-81
2023/04/10 18:37:39;;;;;;;4.63;2.60;;;;;10.50;100557.00;;;;9927725;29;20257;-81
2023/04/10 18:42:41;;;;;;;7.87;3.07;;;;;10.50;100572.00;;;;9884357;29;20302;-81
2023/04/10 18:47:43;;;;;;;7.20;3.20;;;;;10.50;100563.00;;;;9840843;29;20215;-81
2023/04/10 18:52:45;;;;;;;9.73;2.90;;;;;10.50;100558.00;;;;9867925;29;20222;-81
2023/04/10 18:57:48;;;;;;;6.13;2.90;;;;;10.50;100536.00;;;;9853413;29;20311;-81
2023/04/10 19:02:50;;;;;;;8.13;3.27;;;;;10.50;100527.00;;;;9852054;29;20235;-82
2023/04/10 19:07:52;;;;;;;8.57;3.33;;;;;10.50;100537.00;;;;9851316;29;20558;-82
2023/04/10 19:13:07;;;;;;;8.50;4.40;;;;;10.50;100540.00;;;;9839407;29;20397;-83
2023/04/10 19:18:10;;;;;;;11.23;4.50;;;;;10.50;100549.00;;;;9867521;29;20203;-82
2023/04/10 19:23:15;;;;;;;11.13;4.50;;;;;10.50;100541.00;;;;9867978;29;20326;-82
2023/04/10 19:28:17;;;;;;;14.33;5.53;;;;;10.40;100543.00;;;;9882043;29;20207;-81
2023/04/10 19:33:20;;;;;;;14.37;4.83;;;;;10.40;100550.00;;;;9866024;29;20231;-81
2023/04/10 19:38:21;;;;;;;16.17;4.90;;;;;10.40;100536.00;;;;9862520;29;20279;-81
2023/04/10 19:43:24;;;;;;;15.13;5.27;;;;;10.30;100533.00;;;;9863444;29;20709;-81
2023/04/10 19:48:26;;;;;;;9.10;4.40;;;;;10.30;100528.00;;;;9840027;29;20231;-81
2023/04/10 19:53:28;;;;;;;14.10;4.23;;;;;10.20;100523.00;;;;9841697;30;20817;-80
2023/04/10 19:58:31;;;;;;;10.57;3.47;;;;;10.20;100546.00;;;;9864918;29;20234;-80
2023/04/10 20:03:42;;;;;;;14.87;3.60;;;;;10.20;100540.00;;;;9901834;29;20272;-81
2023/04/10 20:08:44;;;;;;;16.27;4.07;;;;;10.20;100512.00;;;;9915898;29;20238;-82
2023/04/10 20:13:46;;;;;;;15.53;4.17;;;;;10.10;100525.00;;;;9889644;29;20204;-82
2023/04/10 20:18:48;;;;;;;9.03;3.67;;;;;10.10;100528.00;;;;9866764;29;20673;-81
2023/04/10 20:23:50;;;;;;;9.37;3.23;;;;;10.10;100536.00;;;;9861607;29;20273;-81
2023/04/10 20:28:52;;;;;;;10.57;2.93;;;;;10.10;100531.00;;;;9868888;29;20296;-81
2023/04/10 20:33:55;;;;;;;11.50;3.70;;;;;10.00;100515.00;;;;9881430;29;20245;-81
2023/04/10 20:38:57;;;;;;;11.10;3.23;;;;;9.90;100501.00;;;;9868477;29;20194;-81
2023/04/10 20:43:59;;;;;;;8.57;3.23;;;;;9.80;100488.00;;;;9884646;29;20700;-82
2023/04/10 20:49:02;;;;;;;13.03;3.53;;;;;9.70;100505.00;;;;9868387;29;20234;-81
2023/04/10 20:54:07;;;;;;;12.10;3.00;;;;;9.70;100497.00;;;;9869060;29;20228;-82
2023/04/10 20:59:10;;;;;;;14.70;3.50;;;;;9.80;100491.00;;;;9854246;29;20245;-82
2023/04/10 21:04:12;;;;;;;13.73;3.43;;;;;9.80;100482.00;;;;9864826;29;20284;-81
2023/04/10 21:09:14;;;;;;;15.43;3.30;;;;;9.90;100488.00;;;;9866193;29;20204;-81
2023/04/10 21:14:15;;;;;;;11.17;3.70;;;;;9.90;100494.00;;;;9884257;29;20295;-82
2023/04/10 21:19:18;;;;;;;12.57;3.30;;;;;9.90;100488.00;;;;9871586;29;20188;-82
2023/04/10 21:24:20;;;;;;;12.33;2.43;;;;;9.80;100492.00;;;;9867774;29;20231;-82
2023/04/10 21:29:22;;;;;;;12.77;3.13;;;;;9.80;100504.00;;;;9848232;29;20290;-81
2023/04/10 21:34:24;;;;;;;12.77;3.03;;;;;9.80;100527.00;;;;9855213;29;20661;-81
2023/04/10 21:39:28;;;;;;;8.33;2.37;;;;;9.70;100514.00;;;;9854393;29;20211;-80
2023/04/10 21:44:30;;;;;;;12.23;2.77;;;;;9.70;100516.00;;;;9863545;29;20234;-80
2023/04/10 21:49:32;;;;;;;10.80;2.30;;;;;9.60;100531.00;;;;9883811;29;20352;-82
2023/04/10 21:54:34;;;;;;;13.20;3.37;;;;;9.60;100541.00;;;;9850691;29;20537;-80
2023/04/10 21:59:36;;;;;;;15.53;3.10;;;;;9.60;100535.00;;;;9832160;30;20252;-80
2023/04/10 22:04:38;;;;;;;11.47;2.80;;;;;9.60;100530.00;;;;9865194;29;20224;-81
2023/04/10 22:09:55;;;;;;;19.97;3.20;;;;;9.50;100535.00;;;;9819604;29;20579;-80
2023/04/10 22:14:56;;;;;;;18.13;2.70;;;;;9.40;100530.00;;;;9844935;30;20698;-80
2023/04/10 22:19:58;;;;;;;11.20;3.30;;;;;9.30;100525.00;;;;9833566;29;20223;-80
2023/04/10 22:25:01;;;;;;;13.77;2.60;;;;;9.20;100526.00;;;;9827816;30;20631;-80
2023/04/10 22:30:03;;;;;;;17.83;3.73;;;;;9.10;100518.00;;;;9848697;29;20235;-81
2023/04/10 22:35:06;;;;;;;17.07;3.50;;;;;9.00;100517.00;;;;9864364;29;20203;-80
2023/04/10 22:40:09;;;;;;;15.27;3.80;;;;;9.00;100522.00;;;;9852510;29;20204;-80
2023/04/10 22:45:11;;;;;;;11.77;2.93;;;;;8.90;100518.00;;;;9863662;29;20220;-81
2023/04/10 22:50:13;;;;;;;18.20;3.90;;;;;8.90;100533.00;;;;9845068;29;20244;-81
2023/04/10 22:55:15;;;;;;;14.87;3.60;;;;;8.90;100535.00;;;;9826679;30;20224;-80
2023/04/10 23:00:17;;;;;;;21.67;3.70;;;;;8.80;100548.00;;;;9825132;30;20220;-81
2023/04/10 23:05:20;;;;;;;20.60;3.60;;;;;8.80;100545.00;;;;9862928;29;20677;-80
2023/04/10 23:10:21;;;;;;;22.17;3.27;;;;;8.70;100551.00;;;;9871524;29;20291;-80
2023/04/10 23:15:24;;;;;;;20.00;4.03;;;;;8.70;100538.00;;;;9876463;29;20472;-79
2023/04/10 23:20:26;;;;;;;20.67;3.87;;;;;8.60;100549.00;;;;9849625;29;20253;-80
2023/04/10 23:25:28;;;;;;;19.47;4.37;;;;;8.60;100549.00;;;;9892742;29;20226;-80
2023/04/10 23:30:30;;;;;;;24.37;3.90;;;;;8.60;100560.00;;;;9851769;29;20243;-79
2023/04/10 23:35:32;;;;;;;22.03;3.43;;;;;8.70;100565.00;;;;9817257;30;20250;-80
2023/04/10 23:40:34;;;;;;;25.43;5.03;;;;;8.80;100561.00;;;;9855414;29;20203;-79
2023/04/10 23:45:36;;;;;;;15.50;4.10;;;;;8.80;100540.00;;;;9833201;29;20219;-80
2023/04/10 23:50:38;;;;;;;19.43;4.20;;;;;8.80;100538.00;;;;9810580;30;20216;-79
2023/04/10 23:55:41;;;;;;;22.77;4.10;;;;;8.70;100581.00;;;;9824528;30;20217;-80
